sensor_id;sensor_type;location;lat;lon;timestamp;P1;durP1;ratioP1;P2;durP2;ratioP2
63095;SDS011;49184;55.596;37.770;2022-09-09T00:02:20;4.80;;;2.10;;
63095;SDS011;49184;55.596;37.770;2022-09-09T00:07:38;7.30;;;1.90;;
63095;SDS011;49184;55.596;37.770;2022-09-09T00:10:16;4.10;;;2.13;;
63095;SDS011;49184;55.596;37.770;2022-09-09T00:24:00;6.78;;;2.55;;
63095;SDS011;49184;55.596;37.770;2022-09-09T00:26:38;4.47;;;2.40;;
63095;SDS011;49184;55.596;37.770;2022-09-09T00:31:38;3.97;;;1.92;;
63095;SDS011;49184;55.596;37.770;2022-09-09T00:34:11;4.68;;;2.10;;
63095;SDS011;49184;55.596;37.770;2022-09-09T00:36:40;6.00;;;1.98;;
63095;SDS011;49184;55.596;37.770;2022-09-09T00:39:13;4.13;;;1.80;;
63095;SDS011;49184;55.596;37.770;2022-09-09T00:42:13;3.30;;;1.88;;
63095;SDS011;49184;55.596;37.770;2022-09-09T00:58:37;6.38;;;1.83;;
63095;SDS011;49184;55.596;37.770;2022-09-09T01:01:04;5.85;;;1.85;;
63095;SDS011;49184;55.596;37.770;2022-09-09T01:03:35;4.72;;;1.80;;
63095;SDS011;49184;55.596;37.770;2022-09-09T01:06:13;3.15;;;1.70;;
63095;SDS011;49184;55.596;37.770;2022-09-09T01:11:49;2.95;;;1.83;;
63095;SDS011;49184;55.596;37.770;2022-09-09T01:14:43;3.97;;;1.90;;
63095;SDS011;49184;55.596;37.770;2022-09-09T01:20:02;5.38;;;2.33;;
63095;SDS011;49184;55.596;37.770;2022-09-09T01:23:08;4.80;;;1.70;;
63095;SDS011;49184;55.596;37.770;2022-09-09T01:28:38;4.18;;;1.88;;
63095;SDS011;49184;55.596;37.770;2022-09-09T01:31:11;3.08;;;1.80;;
63095;SDS011;49184;55.596;37.770;2022-09-09T01:33:45;3.67;;;2.00;;
63095;SDS011;49184;55.596;37.770;2022-09-09T01:36:32;6.95;;;1.95;;
63095;SDS011;49184;55.596;37.770;2022-09-09T01:39:23;6.05;;;1.80;;
63095;SDS011;49184;55.596;37.770;2022-09-09T01:41:58;4.18;;;1.92;;
63095;SDS011;49184;55.596;37.770;2022-09-09T01:44:25;6.93;;;1.95;;
63095;SDS011;49184;55.596;37.770;2022-09-09T01:49:21;4.85;;;2.00;;
63095;SDS011;49184;55.596;37.770;2022-09-09T01:51:50;5.47;;;2.10;;
63095;SDS011;49184;55.596;37.770;2022-09-09T01:54:25;5.57;;;2.22;;
63095;SDS011;49184;55.596;37.770;2022-09-09T01:59:48;9.05;;;2.83;;
63095;SDS011;49184;55.596;37.770;2022-09-09T02:02:24;6.88;;;2.15;;
63095;SDS011;49184;55.596;37.770;2022-09-09T02:07:40;5.82;;;2.28;;
63095;SDS011;49184;55.596;37.770;2022-09-09T02:10:37;4.18;;;2.10;;
63095;SDS011;49184;55.596;37.770;2022-09-09T02:13:20;3.20;;;2.10;;
63095;SDS011;49184;55.596;37.770;2022-09-09T02:18:44;7.63;;;2.20;;
63095;SDS011;49184;55.596;37.770;2022-09-09T02:21:17;6.43;;;2.25;;
63095;SDS011;49184;55.596;37.770;2022-09-09T02:23:44;5.68;;;2.30;;
63095;SDS011;49184;55.596;37.770;2022-09-09T02:26:14;10.85;;;2.50;;
63095;SDS011;49184;55.596;37.770;2022-09-09T02:28:50;7.20;;;2.67;;
63095;SDS011;49184;55.596;37.770;2022-09-09T02:33:51;5.97;;;2.72;;
63095;SDS011;49184;55.596;37.770;2022-09-09T02:36:24;12.35;;;2.88;;
63095;SDS011;49184;55.596;37.770;2022-09-09T02:38:52;6.55;;;2.75;;
63095;SDS011;49184;55.596;37.770;2022-09-09T02:41:26;5.75;;;2.75;;
63095;SDS011;49184;55.596;37.770;2022-09-09T02:43:58;10.30;;;3.35;;
63095;SDS011;49184;55.596;37.770;2022-09-09T02:46:28;7.78;;;3.13;;
63095;SDS011;49184;55.596;37.770;2022-09-09T02:51:45;5.72;;;3.03;;
63095;SDS011;49184;55.596;37.770;2022-09-09T02:54:28;13.25;;;2.80;;
63095;SDS011;49184;55.596;37.770;2022-09-09T02:57:19;7.93;;;2.92;;
63095;SDS011;49184;55.596;37.770;2022-09-09T02:59:53;7.15;;;3.10;;
63095;SDS011;49184;55.596;37.770;2022-09-09T03:02:23;11.75;;;3.35;;
63095;SDS011;49184;55.596;37.770;2022-09-09T03:04:54;8.82;;;3.20;;
63095;SDS011;49184;55.596;37.770;2022-09-09T03:09:49;5.90;;;3.10;;
63095;SDS011;49184;55.596;37.770;2022-09-09T03:12:16;6.55;;;3.53;;
63095;SDS011;49184;55.596;37.770;2022-09-09T03:17:11;6.15;;;3.22;;
63095;SDS011;49184;55.596;37.770;2022-09-09T03:19:44;5.70;;;3.05;;
63095;SDS011;49184;55.596;37.770;2022-09-09T03:22:12;6.28;;;3.17;;
63095;SDS011;49184;55.596;37.770;2022-09-09T03:24:41;5.88;;;3.13;;
63095;SDS011;49184;55.596;37.770;2022-09-09T03:27:07;8.77;;;3.15;;
63095;SDS011;49184;55.596;37.770;2022-09-09T03:29:36;7.63;;;3.22;;
63095;SDS011;49184;55.596;37.770;2022-09-09T03:32:04;9.95;;;3.38;;
63095;SDS011;49184;55.596;37.770;2022-09-09T03:34:30;11.87;;;3.60;;
63095;SDS011;49184;55.596;37.770;2022-09-09T03:36:57;12.75;;;3.47;;
63095;SDS011;49184;55.596;37.770;2022-09-09T03:39:27;14.40;;;3.58;;
63095;SDS011;49184;55.596;37.770;2022-09-09T03:41:53;7.67;;;3.87;;
63095;SDS011;49184;55.596;37.770;2022-09-09T03:44:20;9.75;;;3.97;;
63095;SDS011;49184;55.596;37.770;2022-09-09T03:49:15;9.20;;;3.80;;
63095;SDS011;49184;55.596;37.770;2022-09-09T03:54:11;10.18;;;3.35;;
63095;SDS011;49184;55.596;37.770;2022-09-09T03:56:38;9.40;;;3.42;;
63095;SDS011;49184;55.596;37.770;2022-09-09T03:59:08;8.07;;;3.40;;
63095;SDS011;49184;55.596;37.770;2022-09-09T04:01:37;7.90;;;3.47;;
63095;SDS011;49184;55.596;37.770;2022-09-09T04:04:03;9.95;;;3.80;;
63095;SDS011;49184;55.596;37.770;2022-09-09T04:06:29;8.85;;;4.07;;
63095;SDS011;49184;55.596;37.770;2022-09-09T04:08:56;9.27;;;3.83;;
63095;SDS011;49184;55.596;37.770;2022-09-09T04:11:24;12.88;;;4.25;;
63095;SDS011;49184;55.596;37.770;2022-09-09T04:13:53;7.97;;;4.03;;
63095;SDS011;49184;55.596;37.770;2022-09-09T04:16:19;6.15;;;3.50;;
63095;SDS011;49184;55.596;37.770;2022-09-09T04:18:46;9.15;;;3.70;;
63095;SDS011;49184;55.596;37.770;2022-09-09T04:21:15;10.13;;;3.85;;
63095;SDS011;49184;55.596;37.770;2022-09-09T04:23:41;9.95;;;3.80;;
63095;SDS011;49184;55.596;37.770;2022-09-09T04:26:11;6.68;;;3.58;;
63095;SDS011;49184;55.596;37.770;2022-09-09T04:28:38;11.45;;;3.58;;
63095;SDS011;49184;55.596;37.770;2022-09-09T04:31:14;9.00;;;3.70;;
63095;SDS011;49184;55.596;37.770;2022-09-09T04:33:45;7.80;;;3.35;;
63095;SDS011;49184;55.596;37.770;2022-09-09T04:38:38;8.63;;;3.63;;
63095;SDS011;49184;55.596;37.770;2022-09-09T04:41:05;8.88;;;3.10;;
63095;SDS011;49184;55.596;37.770;2022-09-09T04:43:34;9.25;;;3.70;;
63095;SDS011;49184;55.596;37.770;2022-09-09T04:46:03;56.10;;;4.57;;
63095;SDS011;49184;55.596;37.770;2022-09-09T04:48:29;10.88;;;3.53;;
63095;SDS011;49184;55.596;37.770;2022-09-09T04:51:03;12.63;;;3.67;;
63095;SDS011;49184;55.596;37.770;2022-09-09T04:53:32;8.15;;;3.40;;
63095;SDS011;49184;55.596;37.770;2022-09-09T04:56:04;13.35;;;3.08;;
63095;SDS011;49184;55.596;37.770;2022-09-09T04:58:36;9.27;;;3.53;;
63095;SDS011;49184;55.596;37.770;2022-09-09T05:01:09;6.57;;;3.40;;
63095;SDS011;49184;55.596;37.770;2022-09-09T05:03:44;10.50;;;3.13;;
63095;SDS011;49184;55.596;37.770;2022-09-09T05:06:15;9.90;;;3.67;;
63095;SDS011;49184;55.596;37.770;2022-09-09T05:08:45;6.00;;;3.17;;
63095;SDS011;49184;55.596;37.770;2022-09-09T05:13:45;9.05;;;3.60;;
63095;SDS011;49184;55.596;37.770;2022-09-09T05:16:13;10.18;;;3.70;;
63095;SDS011;49184;55.596;37.770;2022-09-09T05:18:40;13.80;;;3.70;;
63095;SDS011;49184;55.596;37.770;2022-09-09T05:21:09;15.00;;;3.38;;
63095;SDS011;49184;55.596;37.770;2022-09-09T05:23:36;12.57;;;3.70;;
63095;SDS011;49184;55.596;37.770;2022-09-09T05:26:03;14.18;;;3.92;;
63095;SDS011;49184;55.596;37.770;2022-09-09T05:28:30;13.65;;;3.55;;
63095;SDS011;49184;55.596;37.770;2022-09-09T05:33:32;13.80;;;3.78;;
63095;SDS011;49184;55.596;37.770;2022-09-09T05:36:00;10.18;;;3.20;;
63095;SDS011;49184;55.596;37.770;2022-09-09T05:38:29;11.20;;;3.90;;
63095;SDS011;49184;55.596;37.770;2022-09-09T05:48:34;27.20;;;4.03;;
63095;SDS011;49184;55.596;37.770;2022-09-09T05:51:25;17.40;;;3.50;;
63095;SDS011;49184;55.596;37.770;2022-09-09T05:53:57;25.02;;;3.95;;
63095;SDS011;49184;55.596;37.770;2022-09-09T05:56:29;16.83;;;3.80;;
63095;SDS011;49184;55.596;37.770;2022-09-09T05:58:58;11.98;;;3.45;;
63095;SDS011;49184;55.596;37.770;2022-09-09T06:01:27;15.38;;;3.78;;
63095;SDS011;49184;55.596;37.770;2022-09-09T06:03:57;34.55;;;4.45;;
63095;SDS011;49184;55.596;37.770;2022-09-09T06:06:24;42.72;;;4.30;;
63095;SDS011;49184;55.596;37.770;2022-09-09T06:08:55;24.35;;;3.90;;
63095;SDS011;49184;55.596;37.770;2022-09-09T06:11:30;25.08;;;3.45;;
63095;SDS011;49184;55.596;37.770;2022-09-09T06:13:58;11.43;;;2.63;;
63095;SDS011;49184;55.596;37.770;2022-09-09T06:16:28;21.70;;;3.17;;
63095;SDS011;49184;55.596;37.770;2022-09-09T06:18:55;28.60;;;3.30;;
63095;SDS011;49184;55.596;37.770;2022-09-09T06:21:28;31.10;;;4.00;;
63095;SDS011;49184;55.596;37.770;2022-09-09T06:24:07;27.75;;;3.72;;
63095;SDS011;49184;55.596;37.770;2022-09-09T06:26:34;42.28;;;3.58;;
63095;SDS011;49184;55.596;37.770;2022-09-09T06:29:03;15.40;;;2.80;;
63095;SDS011;49184;55.596;37.770;2022-09-09T06:31:31;13.85;;;2.60;;
63095;SDS011;49184;55.596;37.770;2022-09-09T06:34:06;25.90;;;4.70;;
63095;SDS011;49184;55.596;37.770;2022-09-09T06:36:35;9.45;;;1.90;;
63095;SDS011;49184;55.596;37.770;2022-09-09T06:39:03;17.95;;;2.35;;
63095;SDS011;49184;55.596;37.770;2022-09-09T06:41:32;18.02;;;2.65;;
63095;SDS011;49184;55.596;37.770;2022-09-09T06:44:00;24.17;;;2.63;;
63095;SDS011;49184;55.596;37.770;2022-09-09T06:46:37;10.88;;;2.55;;
63095;SDS011;49184;55.596;37.770;2022-09-09T06:49:06;27.85;;;3.10;;
63095;SDS011;49184;55.596;37.770;2022-09-09T06:51:35;15.40;;;2.78;;
63095;SDS011;49184;55.596;37.770;2022-09-09T06:54:04;31.52;;;3.75;;
63095;SDS011;49184;55.596;37.770;2022-09-09T06:56:33;15.68;;;3.22;;
63095;SDS011;49184;55.596;37.770;2022-09-09T06:59:06;15.75;;;2.45;;
63095;SDS011;49184;55.596;37.770;2022-09-09T07:01:35;6.20;;;1.67;;
63095;SDS011;49184;55.596;37.770;2022-09-09T07:04:08;9.70;;;2.17;;
63095;SDS011;49184;55.596;37.770;2022-09-09T07:06:39;20.20;;;3.13;;
63095;SDS011;49184;55.596;37.770;2022-09-09T07:09:11;35.20;;;3.92;;
63095;SDS011;49184;55.596;37.770;2022-09-09T07:11:45;17.20;;;2.53;;
63095;SDS011;49184;55.596;37.770;2022-09-09T07:14:13;35.60;;;4.13;;
63095;SDS011;49184;55.596;37.770;2022-09-09T07:16:44;27.17;;;3.10;;
63095;SDS011;49184;55.596;37.770;2022-09-09T07:19:13;38.13;;;3.40;;
63095;SDS011;49184;55.596;37.770;2022-09-09T07:21:41;21.25;;;3.35;;
63095;SDS011;49184;55.596;37.770;2022-09-09T07:24:10;13.98;;;3.88;;
63095;SDS011;49184;55.596;37.770;2022-09-09T07:26:38;10.75;;;2.13;;
63095;SDS011;49184;55.596;37.770;2022-09-09T07:29:07;16.40;;;2.95;;
63095;SDS011;49184;55.596;37.770;2022-09-09T07:31:35;7.95;;;3.00;;
63095;SDS011;49184;55.596;37.770;2022-09-09T07:34:06;24.17;;;3.00;;
63095;SDS011;49184;55.596;37.770;2022-09-09T07:39:08;16.10;;;2.88;;
63095;SDS011;49184;55.596;37.770;2022-09-09T07:41:42;11.95;;;1.92;;
63095;SDS011;49184;55.596;37.770;2022-09-09T07:44:14;5.47;;;1.90;;
63095;SDS011;49184;55.596;37.770;2022-09-09T07:46:45;10.93;;;1.92;;
63095;SDS011;49184;55.596;37.770;2022-09-09T07:49:16;15.15;;;2.25;;
63095;SDS011;49184;55.596;37.770;2022-09-09T07:51:45;15.48;;;2.42;;
63095;SDS011;49184;55.596;37.770;2022-09-09T07:54:15;13.23;;;2.88;;
63095;SDS011;49184;55.596;37.770;2022-09-09T07:56:48;10.65;;;2.35;;
63095;SDS011;49184;55.596;37.770;2022-09-09T07:59:15;29.27;;;3.03;;
63095;SDS011;49184;55.596;37.770;2022-09-09T08:01:46;24.00;;;2.88;;
63095;SDS011;49184;55.596;37.770;2022-09-09T08:04:19;48.60;;;4.22;;
63095;SDS011;49184;55.596;37.770;2022-09-09T08:06:48;19.35;;;2.50;;
63095;SDS011;49184;55.596;37.770;2022-09-09T08:09:18;25.63;;;3.17;;
63095;SDS011;49184;55.596;37.770;2022-09-09T08:11:46;24.23;;;2.42;;
63095;SDS011;49184;55.596;37.770;2022-09-09T08:14:13;14.55;;;2.30;;
63095;SDS011;49184;55.596;37.770;2022-09-09T08:16:41;17.02;;;2.88;;
63095;SDS011;49184;55.596;37.770;2022-09-09T08:19:12;20.30;;;2.63;;
63095;SDS011;49184;55.596;37.770;2022-09-09T08:21:41;9.00;;;2.13;;
63095;SDS011;49184;55.596;37.770;2022-09-09T08:24:10;10.48;;;2.25;;
63095;SDS011;49184;55.596;37.770;2022-09-09T08:26:39;23.42;;;2.30;;
63095;SDS011;49184;55.596;37.770;2022-09-09T08:29:11;41.95;;;3.90;;
63095;SDS011;49184;55.596;37.770;2022-09-09T08:31:41;9.25;;;1.85;;
63095;SDS011;49184;55.596;37.770;2022-09-09T08:34:10;21.75;;;2.60;;
63095;SDS011;49184;55.596;37.770;2022-09-09T08:39:06;15.10;;;2.70;;
63095;SDS011;49184;55.596;37.770;2022-09-09T08:47:19;13.07;;;2.90;;
63095;SDS011;49184;55.596;37.770;2022-09-09T08:55:39;35.00;;;4.40;;
63095;SDS011;49184;55.596;37.770;2022-09-09T08:58:41;9.23;;;2.30;;
63095;SDS011;49184;55.596;37.770;2022-09-09T09:12:38;10.75;;;2.30;;
63095;SDS011;49184;55.596;37.770;2022-09-09T09:15:17;11.85;;;2.42;;
63095;SDS011;49184;55.596;37.770;2022-09-09T09:17:54;34.85;;;3.38;;
63095;SDS011;49184;55.596;37.770;2022-09-09T09:20:31;7.97;;;1.95;;
63095;SDS011;49184;55.596;37.770;2022-09-09T09:23:10;6.88;;;2.10;;
63095;SDS011;49184;55.596;37.770;2022-09-09T09:25:46;13.57;;;2.45;;
63095;SDS011;49184;55.596;37.770;2022-09-09T09:28:15;8.45;;;1.83;;
63095;SDS011;49184;55.596;37.770;2022-09-09T09:30:55;14.65;;;2.15;;
63095;SDS011;49184;55.596;37.770;2022-09-09T09:33:34;21.15;;;3.15;;
63095;SDS011;49184;55.596;37.770;2022-09-09T09:39:25;22.38;;;3.10;;
63095;SDS011;49184;55.596;37.770;2022-09-09T09:41:58;18.45;;;2.42;;
63095;SDS011;49184;55.596;37.770;2022-09-09T09:44:46;7.70;;;2.40;;
63095;SDS011;49184;55.596;37.770;2022-09-09T09:47:17;7.20;;;2.05;;
63095;SDS011;49184;55.596;37.770;2022-09-09T09:49:56;11.68;;;2.22;;
63095;SDS011;49184;55.596;37.770;2022-09-09T09:52:32;8.40;;;1.90;;
63095;SDS011;49184;55.596;37.770;2022-09-09T09:55:02;10.10;;;2.10;;
63095;SDS011;49184;55.596;37.770;2022-09-09T09:57:33;10.05;;;1.70;;
63095;SDS011;49184;55.596;37.770;2022-09-09T10:00:14;7.50;;;1.80;;
63095;SDS011;49184;55.596;37.770;2022-09-09T10:02:49;6.07;;;1.63;;
63095;SDS011;49184;55.596;37.770;2022-09-09T10:05:29;7.75;;;1.90;;
63095;SDS011;49184;55.596;37.770;2022-09-09T10:35:04;4.53;;;2.05;;
63095;SDS011;49184;55.596;37.770;2022-09-09T10:46:05;4.72;;;1.67;;
63095;SDS011;49184;55.596;37.770;2022-09-09T10:49:11;2.95;;;1.38;;
63095;SDS011;49184;55.596;37.770;2022-09-09T10:55:26;6.78;;;1.98;;
63095;SDS011;49184;55.596;37.770;2022-09-09T10:57:59;6.90;;;2.08;;
63095;SDS011;49184;55.596;37.770;2022-09-09T11:03:01;4.40;;;1.65;;
63095;SDS011;49184;55.596;37.770;2022-09-09T11:05:48;5.97;;;1.80;;
63095;SDS011;49184;55.596;37.770;2022-09-09T11:08:18;3.15;;;1.88;;
63095;SDS011;49184;55.596;37.770;2022-09-09T11:10:55;9.07;;;2.00;;
63095;SDS011;49184;55.596;37.770;2022-09-09T11:13:35;5.25;;;1.70;;
63095;SDS011;49184;55.596;37.770;2022-09-09T11:16:15;7.05;;;1.50;;
63095;SDS011;49184;55.596;37.770;2022-09-09T11:18:42;17.33;;;2.13;;
63095;SDS011;49184;55.596;37.770;2022-09-09T11:21:14;17.60;;;2.50;;
63095;SDS011;49184;55.596;37.770;2022-09-09T11:23:49;13.20;;;2.25;;
63095;SDS011;49184;55.596;37.770;2022-09-09T11:26:27;11.80;;;2.53;;
63095;SDS011;49184;55.596;37.770;2022-09-09T11:32:23;19.60;;;2.38;;
63095;SDS011;49184;55.596;37.770;2022-09-09T11:40:40;19.63;;;2.45;;
63095;SDS011;49184;55.596;37.770;2022-09-09T11:43:10;18.65;;;2.65;;
63095;SDS011;49184;55.596;37.770;2022-09-09T11:45:39;12.63;;;3.03;;
63095;SDS011;49184;55.596;37.770;2022-09-09T11:48:22;64.93;;;7.95;;
63095;SDS011;49184;55.596;37.770;2022-09-09T11:53:33;7.53;;;2.40;;
63095;SDS011;49184;55.596;37.770;2022-09-09T11:56:11;20.08;;;3.92;;
63095;SDS011;49184;55.596;37.770;2022-09-09T11:58:41;36.45;;;5.75;;
63095;SDS011;49184;55.596;37.770;2022-09-09T12:10:20;44.25;;;4.20;;
63095;SDS011;49184;55.596;37.770;2022-09-09T12:13:15;28.58;;;3.13;;
63095;SDS011;49184;55.596;37.770;2022-09-09T12:15:56;14.20;;;2.45;;
63095;SDS011;49184;55.596;37.770;2022-09-09T12:18:36;16.63;;;2.40;;
63095;SDS011;49184;55.596;37.770;2022-09-09T12:21:07;25.15;;;2.70;;
63095;SDS011;49184;55.596;37.770;2022-09-09T12:23:58;14.85;;;2.00;;
63095;SDS011;49184;55.596;37.770;2022-09-09T12:26:47;29.08;;;3.83;;
63095;SDS011;49184;55.596;37.770;2022-09-09T12:29:28;36.40;;;3.90;;
63095;SDS011;49184;55.596;37.770;2022-09-09T12:32:24;30.75;;;2.25;;
63095;SDS011;49184;55.596;37.770;2022-09-09T12:35:19;75.78;;;7.15;;
63095;SDS011;49184;55.596;37.770;2022-09-09T12:40:32;24.50;;;3.03;;
63095;SDS011;49184;55.596;37.770;2022-09-09T12:43:15;16.42;;;3.15;;
63095;SDS011;49184;55.596;37.770;2022-09-09T12:45:52;27.42;;;2.90;;
63095;SDS011;49184;55.596;37.770;2022-09-09T12:48:32;14.10;;;2.83;;
63095;SDS011;49184;55.596;37.770;2022-09-09T12:51:06;17.23;;;3.47;;
63095;SDS011;49184;55.596;37.770;2022-09-09T12:53:49;49.55;;;6.80;;
63095;SDS011;49184;55.596;37.770;2022-09-09T12:56:21;23.05;;;3.03;;
63095;SDS011;49184;55.596;37.770;2022-09-09T12:58:53;31.83;;;3.85;;
63095;SDS011;49184;55.596;37.770;2022-09-09T13:01:26;25.60;;;2.67;;
63095;SDS011;49184;55.596;37.770;2022-09-09T13:04:02;24.92;;;3.60;;
63095;SDS011;49184;55.596;37.770;2022-09-09T13:06:31;19.70;;;3.30;;
63095;SDS011;49184;55.596;37.770;2022-09-09T13:09:02;28.98;;;4.53;;
63095;SDS011;49184;55.596;37.770;2022-09-09T13:11:38;31.77;;;5.25;;
63095;SDS011;49184;55.596;37.770;2022-09-09T13:14:16;24.13;;;3.60;;
63095;SDS011;49184;55.596;37.770;2022-09-09T13:16:57;14.32;;;2.63;;
63095;SDS011;49184;55.596;37.770;2022-09-09T13:19:26;18.45;;;3.17;;
63095;SDS011;49184;55.596;37.770;2022-09-09T13:22:13;46.22;;;5.50;;
63095;SDS011;49184;55.596;37.770;2022-09-09T13:25:35;8.27;;;3.00;;
63095;SDS011;49184;55.596;37.770;2022-09-09T13:27:39;20.80;;;3.17;;
63095;SDS011;49184;55.596;37.770;2022-09-09T13:36:02;91.68;;;7.97;;
63095;SDS011;49184;55.596;37.770;2022-09-09T13:38:38;29.52;;;4.10;;
63095;SDS011;49184;55.596;37.770;2022-09-09T13:41:22;67.97;;;7.30;;
63095;SDS011;49184;55.596;37.770;2022-09-09T13:43:50;28.80;;;4.30;;
63095;SDS011;49184;55.596;37.770;2022-09-09T13:46:34;22.48;;;3.53;;
63095;SDS011;49184;55.596;37.770;2022-09-09T13:52:05;65.40;;;7.03;;
63095;SDS011;49184;55.596;37.770;2022-09-09T13:54:36;17.75;;;3.42;;
63095;SDS011;49184;55.596;37.770;2022-09-09T13:57:36;18.45;;;3.70;;
63095;SDS011;49184;55.596;37.770;2022-09-09T13:59:55;13.75;;;3.47;;
63095;SDS011;49184;55.596;37.770;2022-09-09T14:02:21;45.63;;;5.07;;
63095;SDS011;49184;55.596;37.770;2022-09-09T14:04:50;28.33;;;4.38;;
63095;SDS011;49184;55.596;37.770;2022-09-09T14:07:21;19.20;;;3.20;;
63095;SDS011;49184;55.596;37.770;2022-09-09T14:09:47;17.67;;;3.60;;
63095;SDS011;49184;55.596;37.770;2022-09-09T14:12:15;25.80;;;4.40;;
63095;SDS011;49184;55.596;37.770;2022-09-09T14:14:42;18.88;;;3.95;;
63095;SDS011;49184;55.596;37.770;2022-09-09T14:17:10;16.85;;;4.25;;
63095;SDS011;49184;55.596;37.770;2022-09-09T14:19:36;46.08;;;4.40;;
63095;SDS011;49184;55.596;37.770;2022-09-09T14:22:37;35.30;;;4.78;;
63095;SDS011;49184;55.596;37.770;2022-09-09T14:27:32;55.10;;;4.82;;
63095;SDS011;49184;55.596;37.770;2022-09-09T14:30:00;34.42;;;4.78;;
63095;SDS011;49184;55.596;37.770;2022-09-09T14:32:29;20.27;;;3.35;;
63095;SDS011;49184;55.596;37.770;2022-09-09T14:34:56;41.85;;;5.18;;
63095;SDS011;49184;55.596;37.770;2022-09-09T14:37:27;34.03;;;5.50;;
63095;SDS011;49184;55.596;37.770;2022-09-09T14:39:53;27.75;;;5.90;;
63095;SDS011;49184;55.596;37.770;2022-09-09T14:42:21;16.48;;;4.45;;
63095;SDS011;49184;55.596;37.770;2022-09-09T14:44:51;46.00;;;5.70;;
63095;SDS011;49184;55.596;37.770;2022-09-09T14:47:19;27.40;;;3.80;;
63095;SDS011;49184;55.596;37.770;2022-09-09T14:49:45;29.52;;;4.60;;
63095;SDS011;49184;55.596;37.770;2022-09-09T14:52:11;27.45;;;5.00;;
63095;SDS011;49184;55.596;37.770;2022-09-09T14:54:37;34.95;;;5.57;;
63095;SDS011;49184;55.596;37.770;2022-09-09T14:57:03;31.70;;;4.68;;
63095;SDS011;49184;55.596;37.770;2022-09-09T14:59:29;18.30;;;4.85;;
63095;SDS011;49184;55.596;37.770;2022-09-09T15:01:55;18.23;;;4.37;;
63095;SDS011;49184;55.596;37.770;2022-09-09T15:04:23;29.50;;;4.15;;
63095;SDS011;49184;55.596;37.770;2022-09-09T15:06:50;29.65;;;4.35;;
63095;SDS011;49184;55.596;37.770;2022-09-09T15:09:18;15.93;;;2.60;;
63095;SDS011;49184;55.596;37.770;2022-09-09T15:11:45;11.63;;;3.33;;
63095;SDS011;49184;55.596;37.770;2022-09-09T15:14:14;31.98;;;3.75;;
63095;SDS011;49184;55.596;37.770;2022-09-09T15:16:41;64.53;;;6.60;;
63095;SDS011;49184;55.596;37.770;2022-09-09T15:19:07;42.87;;;5.27;;
63095;SDS011;49184;55.596;37.770;2022-09-09T15:21:35;59.92;;;5.53;;
63095;SDS011;49184;55.596;37.770;2022-09-09T15:24:02;36.22;;;4.55;;
63095;SDS011;49184;55.596;37.770;2022-09-09T15:26:30;43.22;;;7.03;;
63095;SDS011;49184;55.596;37.770;2022-09-09T15:28:57;37.75;;;5.18;;
63095;SDS011;49184;55.596;37.770;2022-09-09T15:31:26;12.57;;;2.90;;
63095;SDS011;49184;55.596;37.770;2022-09-09T15:33:58;159.50;;;12.57;;
63095;SDS011;49184;55.596;37.770;2022-09-09T15:38:55;28.55;;;8.93;;
63095;SDS011;49184;55.596;37.770;2022-09-09T15:41:29;29.17;;;5.80;;
63095;SDS011;49184;55.596;37.770;2022-09-09T15:43:57;20.13;;;3.83;;
63095;SDS011;49184;55.596;37.770;2022-09-09T15:46:24;10.88;;;3.88;;
63095;SDS011;49184;55.596;37.770;2022-09-09T15:48:56;16.27;;;4.32;;
63095;SDS011;49184;55.596;37.770;2022-09-09T15:51:24;33.35;;;5.75;;
63095;SDS011;49184;55.596;37.770;2022-09-09T15:53:56;36.00;;;8.15;;
63095;SDS011;49184;55.596;37.770;2022-09-09T15:56:27;110.95;;;37.47;;
63095;SDS011;49184;55.596;37.770;2022-09-09T15:58:58;123.60;;;35.90;;
63095;SDS011;49184;55.596;37.770;2022-09-09T16:01:26;92.45;;;17.17;;
63095;SDS011;49184;55.596;37.770;2022-09-09T16:03:54;230.10;;;78.30;;
63095;SDS011;49184;55.596;37.770;2022-09-09T16:06:22;225.82;;;86.88;;
63095;SDS011;49184;55.596;37.770;2022-09-09T16:08:50;91.65;;;26.80;;
63095;SDS011;49184;55.596;37.770;2022-09-09T16:11:22;138.82;;;47.17;;
63095;SDS011;49184;55.596;37.770;2022-09-09T16:13:51;117.57;;;40.25;;
63095;SDS011;49184;55.596;37.770;2022-09-09T16:16:21;100.53;;;34.03;;
63095;SDS011;49184;55.596;37.770;2022-09-09T16:18:52;272.75;;;106.63;;
63095;SDS011;49184;55.596;37.770;2022-09-09T16:21:22;309.27;;;114.38;;
63095;SDS011;49184;55.596;37.770;2022-09-09T16:23:54;208.63;;;79.70;;
63095;SDS011;49184;55.596;37.770;2022-09-09T16:26:22;131.70;;;48.90;;
63095;SDS011;49184;55.596;37.770;2022-09-09T16:28:49;46.83;;;12.65;;
63095;SDS011;49184;55.596;37.770;2022-09-09T16:31:16;87.70;;;30.15;;
63095;SDS011;49184;55.596;37.770;2022-09-09T16:33:47;37.53;;;11.25;;
63095;SDS011;49184;55.596;37.770;2022-09-09T16:36:17;72.18;;;20.65;;
63095;SDS011;49184;55.596;37.770;2022-09-09T16:38:48;64.18;;;19.00;;
63095;SDS011;49184;55.596;37.770;2022-09-09T16:41:19;65.90;;;24.30;;
63095;SDS011;49184;55.596;37.770;2022-09-09T16:43:45;74.43;;;25.33;;
63095;SDS011;49184;55.596;37.770;2022-09-09T16:46:13;63.35;;;9.60;;
63095;SDS011;49184;55.596;37.770;2022-09-09T16:48:44;92.63;;;31.35;;
63095;SDS011;49184;55.596;37.770;2022-09-09T16:51:29;122.70;;;37.72;;
63095;SDS011;49184;55.596;37.770;2022-09-09T16:53:59;164.55;;;57.08;;
63095;SDS011;49184;55.596;37.770;2022-09-09T16:56:30;77.18;;;25.00;;
63095;SDS011;49184;55.596;37.770;2022-09-09T16:59:00;27.27;;;5.93;;
63095;SDS011;49184;55.596;37.770;2022-09-09T17:01:29;47.25;;;17.17;;
63095;SDS011;49184;55.596;37.770;2022-09-09T17:03:59;35.67;;;12.05;;
63095;SDS011;49184;55.596;37.770;2022-09-09T17:06:28;12.68;;;4.00;;
63095;SDS011;49184;55.596;37.770;2022-09-09T17:09:00;65.15;;;16.30;;
63095;SDS011;49184;55.596;37.770;2022-09-09T17:11:28;48.80;;;17.10;;
63095;SDS011;49184;55.596;37.770;2022-09-09T17:13:55;40.30;;;17.98;;
63095;SDS011;49184;55.596;37.770;2022-09-09T17:16:24;58.40;;;20.75;;
63095;SDS011;49184;55.596;37.770;2022-09-09T17:18:57;47.45;;;16.95;;
63095;SDS011;49184;55.596;37.770;2022-09-09T17:21:27;55.33;;;20.23;;
63095;SDS011;49184;55.596;37.770;2022-09-09T17:23:54;48.30;;;21.13;;
63095;SDS011;49184;55.596;37.770;2022-09-09T17:26:22;51.85;;;19.23;;
63095;SDS011;49184;55.596;37.770;2022-09-09T17:28:52;51.25;;;19.48;;
63095;SDS011;49184;55.596;37.770;2022-09-09T17:31:21;55.25;;;17.45;;
63095;SDS011;49184;55.596;37.770;2022-09-09T17:33:48;51.00;;;16.63;;
63095;SDS011;49184;55.596;37.770;2022-09-09T17:36:21;45.13;;;16.77;;
63095;SDS011;49184;55.596;37.770;2022-09-09T17:38:52;55.75;;;24.17;;
63095;SDS011;49184;55.596;37.770;2022-09-09T17:41:30;66.57;;;24.38;;
63095;SDS011;49184;55.596;37.770;2022-09-09T17:43:58;65.60;;;30.83;;
63095;SDS011;49184;55.596;37.770;2022-09-09T17:46:29;78.82;;;31.85;;
63095;SDS011;49184;55.596;37.770;2022-09-09T17:49:03;79.43;;;33.33;;
63095;SDS011;49184;55.596;37.770;2022-09-09T17:51:31;83.85;;;32.53;;
63095;SDS011;49184;55.596;37.770;2022-09-09T17:53:59;83.65;;;30.75;;
63095;SDS011;49184;55.596;37.770;2022-09-09T17:56:30;64.32;;;28.35;;
63095;SDS011;49184;55.596;37.770;2022-09-09T17:59:01;79.55;;;29.40;;
63095;SDS011;49184;55.596;37.770;2022-09-09T18:01:31;73.18;;;30.92;;
63095;SDS011;49184;55.596;37.770;2022-09-09T18:04:02;109.13;;;55.55;;